sensor_id;sensor_type;location;lat;lon;timestamp;P1;durP1;ratioP1;P2;durP2;ratioP2
64595;SDS011;51003;51.628;6.670;2023-08-07T00:00:40;5.27;;;2.20;;
64595;SDS011;51003;51.628;6.670;2023-08-07T00:04:26;9.37;;;2.03;;
64595;SDS011;51003;51.628;6.670;2023-08-07T00:11:10;4.50;;;2.00;;
64595;SDS011;51003;51.628;6.670;2023-08-07T00:14:23;6.03;;;2.00;;
64595;SDS011;51003;51.628;6.670;2023-08-07T00:17:17;5.13;;;2.20;;
64595;SDS011;51003;51.628;6.670;2023-08-07T00:20:28;3.83;;;1.80;;
64595;SDS011;51003;51.628;6.670;2023-08-07T00:23:34;7.23;;;2.10;;
64595;SDS011;51003;51.628;6.670;2023-08-07T00:27:06;3.90;;;2.60;;
64595;SDS011;51003;51.628;6.670;2023-08-07T00:29:51;6.17;;;1.90;;
64595;SDS011;51003;51.628;6.670;2023-08-07T00:33:04;2.80;;;1.60;;
64595;SDS011;51003;51.628;6.670;2023-08-07T00:35:35;7.03;;;2.00;;
64595;SDS011;51003;51.628;6.670;2023-08-07T00:38:01;6.50;;;1.90;;
64595;SDS011;51003;51.628;6.670;2023-08-07T00:40:26;7.43;;;2.27;;
64595;SDS011;51003;51.628;6.670;2023-08-07T00:42:52;6.07;;;2.00;;
64595;SDS011;51003;51.628;6.670;2023-08-07T00:45:21;2.70;;;1.80;;
64595;SDS011;51003;51.628;6.670;2023-08-07T00:47:50;6.03;;;1.87;;
64595;SDS011;51003;51.628;6.670;2023-08-07T00:50:16;2.83;;;1.80;;
64595;SDS011;51003;51.628;6.670;2023-08-07T00:52:49;5.63;;;2.33;;
64595;SDS011;51003;51.628;6.670;2023-08-07T00:55:14;5.50;;;1.80;;
64595;SDS011;51003;51.628;6.670;2023-08-07T00:57:43;4.40;;;1.67;;
64595;SDS011;51003;51.628;6.670;2023-08-07T01:00:13;4.17;;;1.67;;
64595;SDS011;51003;51.628;6.670;2023-08-07T01:02:39;7.87;;;2.07;;
64595;SDS011;51003;51.628;6.670;2023-08-07T01:05:09;5.03;;;1.97;;
64595;SDS011;51003;51.628;6.670;2023-08-07T01:07:39;6.60;;;1.80;;
64595;SDS011;51003;51.628;6.670;2023-08-07T01:10:05;3.23;;;1.33;;
64595;SDS011;51003;51.628;6.670;2023-08-07T01:12:36;2.90;;;1.80;;
64595;SDS011;51003;51.628;6.670;2023-08-07T01:15:44;2.97;;;1.50;;
64595;SDS011;51003;51.628;6.670;2023-08-07T01:18:10;9.83;;;1.77;;
64595;SDS011;51003;51.628;6.670;2023-08-07T01:20:36;3.27;;;1.43;;
64595;SDS011;51003;51.628;6.670;2023-08-07T01:23:59;6.07;;;1.60;;
64595;SDS011;51003;51.628;6.670;2023-08-07T01:30:42;2.47;;;1.33;;
64595;SDS011;51003;51.628;6.670;2023-08-07T01:33:54;1.70;;;1.40;;
64595;SDS011;51003;51.628;6.670;2023-08-07T01:37:30;2.10;;;1.33;;
64595;SDS011;51003;51.628;6.670;2023-08-07T01:39:57;1.53;;;1.43;;
64595;SDS011;51003;51.628;6.670;2023-08-07T01:42:47;4.43;;;1.37;;
64595;SDS011;51003;51.628;6.670;2023-08-07T01:45:58;1.60;;;1.10;;
64595;SDS011;51003;51.628;6.670;2023-08-07T01:48:46;1.40;;;1.30;;
64595;SDS011;51003;51.628;6.670;2023-08-07T02:50:06;8.30;;;3.13;;
64595;SDS011;51003;51.628;6.670;2023-08-07T07:13:42;11.03;;;4.37;;
64595;SDS011;51003;51.628;6.670;2023-08-07T08:37:16;14.20;;;4.10;;
64595;SDS011;51003;51.628;6.670;2023-08-07T08:39:41;11.43;;;3.90;;
64595;SDS011;51003;51.628;6.670;2023-08-07T08:42:08;9.87;;;3.07;;
64595;SDS011;51003;51.628;6.670;2023-08-07T08:44:37;6.90;;;2.60;;
64595;SDS011;51003;51.628;6.670;2023-08-07T08:47:04;7.93;;;2.93;;
64595;SDS011;51003;51.628;6.670;2023-08-07T08:49:34;9.80;;;3.03;;
64595;SDS011;51003;51.628;6.670;2023-08-07T08:52:01;6.33;;;2.57;;
64595;SDS011;51003;51.628;6.670;2023-08-07T08:54:27;7.10;;;2.37;;
64595;SDS011;51003;51.628;6.670;2023-08-07T08:56:52;8.83;;;3.00;;
64595;SDS011;51003;51.628;6.670;2023-08-07T08:59:19;8.83;;;3.00;;
64595;SDS011;51003;51.628;6.670;2023-08-07T09:01:46;8.20;;;2.67;;
64595;SDS011;51003;51.628;6.670;2023-08-07T09:04:12;5.57;;;3.00;;
64595;SDS011;51003;51.628;6.670;2023-08-07T09:06:38;4.80;;;2.40;;
64595;SDS011;51003;51.628;6.670;2023-08-07T09:09:04;7.43;;;2.90;;
64595;SDS011;51003;51.628;6.670;2023-08-07T09:11:30;8.67;;;2.70;;
64595;SDS011;51003;51.628;6.670;2023-08-07T09:13:55;7.87;;;2.87;;
64595;SDS011;51003;51.628;6.670;2023-08-07T09:16:21;6.10;;;2.60;;
64595;SDS011;51003;51.628;6.670;2023-08-07T09:18:47;5.80;;;2.60;;
64595;SDS011;51003;51.628;6.670;2023-08-07T09:21:15;4.67;;;2.60;;
64595;SDS011;51003;51.628;6.670;2023-08-07T09:23:41;6.43;;;2.70;;
64595;SDS011;51003;51.628;6.670;2023-08-07T09:26:07;4.33;;;2.43;;
64595;SDS011;51003;51.628;6.670;2023-08-07T09:28:33;10.10;;;2.80;;
64595;SDS011;51003;51.628;6.670;2023-08-07T09:30:58;6.20;;;2.87;;
64595;SDS011;51003;51.628;6.670;2023-08-07T09:33:27;6.80;;;2.03;;
64595;SDS011;51003;51.628;6.670;2023-08-07T09:35:56;6.47;;;2.70;;
64595;SDS011;51003;51.628;6.670;2023-08-07T09:38:31;4.23;;;2.70;;
64595;SDS011;51003;51.628;6.670;2023-08-07T09:41:01;4.00;;;2.50;;
64595;SDS011;51003;51.628;6.670;2023-08-07T09:43:28;5.80;;;2.40;;
64595;SDS011;51003;51.628;6.670;2023-08-07T09:46:01;5.87;;;2.70;;
64595;SDS011;51003;51.628;6.670;2023-08-07T09:48:27;5.00;;;2.20;;
64595;SDS011;51003;51.628;6.670;2023-08-07T09:50:53;5.23;;;2.63;;
64595;SDS011;51003;51.628;6.670;2023-08-07T09:53:26;5.93;;;2.80;;
64595;SDS011;51003;51.628;6.670;2023-08-07T09:55:55;6.20;;;3.00;;
64595;SDS011;51003;51.628;6.670;2023-08-07T09:58:21;3.70;;;2.33;;
64595;SDS011;51003;51.628;6.670;2023-08-07T10:00:47;7.10;;;3.13;;
64595;SDS011;51003;51.628;6.670;2023-08-07T10:03:13;4.90;;;2.60;;
64595;SDS011;51003;51.628;6.670;2023-08-07T10:05:39;5.57;;;2.40;;
64595;SDS011;51003;51.628;6.670;2023-08-07T10:08:05;4.53;;;2.47;;
64595;SDS011;51003;51.628;6.670;2023-08-07T10:10:31;7.00;;;2.27;;
64595;SDS011;51003;51.628;6.670;2023-08-07T10:12:59;7.20;;;2.90;;
64595;SDS011;51003;51.628;6.670;2023-08-07T10:15:26;4.67;;;2.23;;
64595;SDS011;51003;51.628;6.670;2023-08-07T10:17:51;7.07;;;3.03;;
64595;SDS011;51003;51.628;6.670;2023-08-07T10:20:17;7.50;;;2.60;;
64595;SDS011;51003;51.628;6.670;2023-08-07T10:22:42;4.73;;;2.60;;
64595;SDS011;51003;51.628;6.670;2023-08-07T10:25:08;8.33;;;2.50;;
64595;SDS011;51003;51.628;6.670;2023-08-07T10:27:35;5.50;;;2.70;;
64595;SDS011;51003;51.628;6.670;2023-08-07T10:30:02;3.07;;;2.30;;
64595;SDS011;51003;51.628;6.670;2023-08-07T10:32:31;5.77;;;2.57;;
64595;SDS011;51003;51.628;6.670;2023-08-07T10:34:57;3.20;;;2.30;;
64595;SDS011;51003;51.628;6.670;2023-08-07T10:37:44;6.30;;;2.70;;
64595;SDS011;51003;51.628;6.670;2023-08-07T10:40:10;4.27;;;2.47;;
64595;SDS011;51003;51.628;6.670;2023-08-07T10:43:18;2.87;;;2.43;;
64595;SDS011;51003;51.628;6.670;2023-08-07T10:45:36;4.80;;;2.30;;
64595;SDS011;51003;51.628;6.670;2023-08-07T10:48:02;5.23;;;2.27;;
64595;SDS011;51003;51.628;6.670;2023-08-07T10:50:33;6.43;;;2.60;;
64595;SDS011;51003;51.628;6.670;2023-08-07T10:53:01;9.40;;;2.50;;
64595;SDS011;51003;51.628;6.670;2023-08-07T10:55:50;4.23;;;2.33;;
64595;SDS011;51003;51.628;6.670;2023-08-07T10:58:24;5.20;;;2.40;;
64595;SDS011;51003;51.628;6.670;2023-08-07T11:03:40;7.10;;;1.90;;
64595;SDS011;51003;51.628;6.670;2023-08-07T11:06:06;4.73;;;2.00;;
64595;SDS011;51003;51.628;6.670;2023-08-07T11:08:31;4.50;;;2.10;;
64595;SDS011;51003;51.628;6.670;2023-08-07T11:10:57;5.67;;;2.43;;
64595;SDS011;51003;51.628;6.670;2023-08-07T11:13:23;5.93;;;2.17;;
64595;SDS011;51003;51.628;6.670;2023-08-07T11:15:48;3.10;;;2.13;;
64595;SDS011;51003;51.628;6.670;2023-08-07T11:18:14;3.40;;;1.87;;
64595;SDS011;51003;51.628;6.670;2023-08-07T11:20:41;7.53;;;2.07;;
64595;SDS011;51003;51.628;6.670;2023-08-07T11:23:07;4.87;;;2.23;;
64595;SDS011;51003;51.628;6.670;2023-08-07T11:25:32;6.33;;;2.13;;
64595;SDS011;51003;51.628;6.670;2023-08-07T11:27:58;3.77;;;2.30;;
64595;SDS011;51003;51.628;6.670;2023-08-07T11:30:23;4.00;;;2.13;;
64595;SDS011;51003;51.628;6.670;2023-08-07T11:32:49;2.40;;;2.20;;
64595;SDS011;51003;51.628;6.670;2023-08-07T11:35:14;4.17;;;2.00;;
64595;SDS011;51003;51.628;6.670;2023-08-07T11:37:46;4.33;;;2.17;;
64595;SDS011;51003;51.628;6.670;2023-08-07T11:40:12;2.30;;;2.10;;
64595;SDS011;51003;51.628;6.670;2023-08-07T11:42:38;4.70;;;2.37;;
64595;SDS011;51003;51.628;6.670;2023-08-07T11:45:03;2.77;;;2.20;;
64595;SDS011;51003;51.628;6.670;2023-08-07T11:47:29;3.37;;;2.20;;
64595;SDS011;51003;51.628;6.670;2023-08-07T11:49:54;7.03;;;2.13;;
64595;SDS011;51003;51.628;6.670;2023-08-07T11:52:20;3.87;;;2.00;;
64595;SDS011;51003;51.628;6.670;2023-08-07T11:54:46;3.17;;;1.90;;
64595;SDS011;51003;51.628;6.670;2023-08-07T11:57:16;6.00;;;2.30;;
64595;SDS011;51003;51.628;6.670;2023-08-07T11:59:45;6.40;;;1.90;;
64595;SDS011;51003;51.628;6.670;2023-08-07T12:02:12;4.63;;;2.20;;
64595;SDS011;51003;51.628;6.670;2023-08-07T12:04:37;3.53;;;2.37;;
64595;SDS011;51003;51.628;6.670;2023-08-07T12:07:03;4.83;;;2.13;;
64595;SDS011;51003;51.628;6.670;2023-08-07T12:09:28;2.10;;;1.90;;
64595;SDS011;51003;51.628;6.670;2023-08-07T12:11:55;6.47;;;2.27;;
64595;SDS011;51003;51.628;6.670;2023-08-07T12:14:27;4.67;;;2.07;;
64595;SDS011;51003;51.628;6.670;2023-08-07T12:16:55;3.50;;;2.33;;
64595;SDS011;51003;51.628;6.670;2023-08-07T12:19:21;3.13;;;1.90;;
64595;SDS011;51003;51.628;6.670;2023-08-07T12:21:46;1.97;;;1.67;;
64595;SDS011;51003;51.628;6.670;2023-08-07T12:24:12;4.63;;;2.10;;
64595;SDS011;51003;51.628;6.670;2023-08-07T12:26:38;5.13;;;2.10;;
64595;SDS011;51003;51.628;6.670;2023-08-07T12:29:03;3.53;;;1.90;;
64595;SDS011;51003;51.628;6.670;2023-08-07T12:31:29;5.17;;;2.00;;
64595;SDS011;51003;51.628;6.670;2023-08-07T12:33:54;2.97;;;1.73;;
64595;SDS011;51003;51.628;6.670;2023-08-07T12:36:19;3.00;;;1.87;;
64595;SDS011;51003;51.628;6.670;2023-08-07T12:38:45;4.97;;;2.03;;
64595;SDS011;51003;51.628;6.670;2023-08-07T12:41:10;2.17;;;1.60;;
64595;SDS011;51003;51.628;6.670;2023-08-07T12:43:36;3.53;;;2.23;;
64595;SDS011;51003;51.628;6.670;2023-08-07T12:46:01;3.30;;;2.20;;
64595;SDS011;51003;51.628;6.670;2023-08-07T12:48:27;4.20;;;1.87;;
64595;SDS011;51003;51.628;6.670;2023-08-07T12:50:53;3.70;;;2.37;;
64595;SDS011;51003;51.628;6.670;2023-08-07T12:53:19;3.10;;;2.20;;
64595;SDS011;51003;51.628;6.670;2023-08-07T12:55:44;4.07;;;2.10;;
64595;SDS011;51003;51.628;6.670;2023-08-07T12:58:10;4.03;;;2.00;;
64595;SDS011;51003;51.628;6.670;2023-08-07T13:00:35;5.40;;;2.00;;
64595;SDS011;51003;51.628;6.670;2023-08-07T13:03:01;3.87;;;2.13;;
64595;SDS011;51003;51.628;6.670;2023-08-07T13:05:27;3.13;;;2.00;;
64595;SDS011;51003;51.628;6.670;2023-08-07T13:07:53;3.13;;;2.00;;
64595;SDS011;51003;51.628;6.670;2023-08-07T13:10:19;4.00;;;1.97;;
64595;SDS011;51003;51.628;6.670;2023-08-07T13:12:47;6.70;;;2.30;;
64595;SDS011;51003;51.628;6.670;2023-08-07T13:15:13;4.97;;;2.17;;
64595;SDS011;51003;51.628;6.670;2023-08-07T13:17:40;2.57;;;1.80;;
64595;SDS011;51003;51.628;6.670;2023-08-07T13:20:06;2.60;;;2.10;;
64595;SDS011;51003;51.628;6.670;2023-08-07T13:22:40;3.80;;;1.90;;
64595;SDS011;51003;51.628;6.670;2023-08-07T13:25:07;6.27;;;2.40;;
64595;SDS011;51003;51.628;6.670;2023-08-07T13:27:34;1.90;;;1.80;;
64595;SDS011;51003;51.628;6.670;2023-08-07T13:30:00;2.23;;;1.90;;
64595;SDS011;51003;51.628;6.670;2023-08-07T13:32:26;2.50;;;1.67;;
64595;SDS011;51003;51.628;6.670;2023-08-07T13:34:52;2.50;;;1.90;;
64595;SDS011;51003;51.628;6.670;2023-08-07T13:37:17;2.60;;;1.93;;
64595;SDS011;51003;51.628;6.670;2023-08-07T13:39:43;2.20;;;1.80;;
64595;SDS011;51003;51.628;6.670;2023-08-07T13:42:08;2.90;;;1.70;;
64595;SDS011;51003;51.628;6.670;2023-08-07T13:44:35;2.23;;;1.70;;
64595;SDS011;51003;51.628;6.670;2023-08-07T13:47:01;5.83;;;1.93;;
64595;SDS011;51003;51.628;6.670;2023-08-07T13:49:26;3.10;;;1.70;;
64595;SDS011;51003;51.628;6.670;2023-08-07T13:51:52;4.17;;;2.10;;
64595;SDS011;51003;51.628;6.670;2023-08-07T13:54:17;6.87;;;1.97;;
64595;SDS011;51003;51.628;6.670;2023-08-07T13:56:42;5.83;;;2.00;;
64595;SDS011;51003;51.628;6.670;2023-08-07T13:59:08;4.07;;;2.20;;
64595;SDS011;51003;51.628;6.670;2023-08-07T14:01:34;2.83;;;1.90;;
64595;SDS011;51003;51.628;6.670;2023-08-07T14:04:00;5.13;;;2.13;;
64595;SDS011;51003;51.628;6.670;2023-08-07T14:06:26;3.00;;;2.20;;
64595;SDS011;51003;51.628;6.670;2023-08-07T14:08:52;2.80;;;1.90;;
64595;SDS011;51003;51.628;6.670;2023-08-07T14:11:17;2.37;;;1.77;;
64595;SDS011;51003;51.628;6.670;2023-08-07T14:13:44;2.40;;;1.90;;
64595;SDS011;51003;51.628;6.670;2023-08-07T14:16:10;4.00;;;2.13;;
64595;SDS011;51003;51.628;6.670;2023-08-07T14:18:36;2.33;;;1.80;;
64595;SDS011;51003;51.628;6.670;2023-08-07T14:21:02;3.70;;;1.83;;
64595;SDS011;51003;51.628;6.670;2023-08-07T14:23:28;2.30;;;1.60;;
64595;SDS011;51003;51.628;6.670;2023-08-07T14:25:53;3.07;;;1.70;;
64595;SDS011;51003;51.628;6.670;2023-08-07T14:28:18;1.73;;;1.63;;
64595;SDS011;51003;51.628;6.670;2023-08-07T14:30:44;3.70;;;2.00;;
64595;SDS011;51003;51.628;6.670;2023-08-07T14:33:10;1.77;;;1.67;;
64595;SDS011;51003;51.628;6.670;2023-08-07T14:35:35;1.90;;;1.77;;
64595;SDS011;51003;51.628;6.670;2023-08-07T14:38:00;2.50;;;1.80;;
64595;SDS011;51003;51.628;6.670;2023-08-07T14:40:26;2.57;;;1.70;;
64595;SDS011;51003;51.628;6.670;2023-08-07T14:42:53;1.87;;;1.67;;
64595;SDS011;51003;51.628;6.670;2023-08-07T14:45:20;2.27;;;2.17;;
64595;SDS011;51003;51.628;6.670;2023-08-07T14:47:46;3.10;;;1.77;;
64595;SDS011;51003;51.628;6.670;2023-08-07T14:50:11;1.70;;;1.60;;
64595;SDS011;51003;51.628;6.670;2023-08-07T14:52:36;1.80;;;1.70;;
64595;SDS011;51003;51.628;6.670;2023-08-07T14:55:02;1.90;;;1.70;;
64595;SDS011;51003;51.628;6.670;2023-08-07T14:57:29;3.20;;;1.60;;
64595;SDS011;51003;51.628;6.670;2023-08-07T14:59:54;1.60;;;1.50;;
64595;SDS011;51003;51.628;6.670;2023-08-07T15:02:19;1.73;;;1.63;;
64595;SDS011;51003;51.628;6.670;2023-08-07T15:04:45;1.77;;;1.40;;
64595;SDS011;51003;51.628;6.670;2023-08-07T15:07:11;4.30;;;1.70;;
64595;SDS011;51003;51.628;6.670;2023-08-07T15:09:37;4.03;;;1.50;;
64595;SDS011;51003;51.628;6.670;2023-08-07T15:12:02;2.73;;;1.77;;
64595;SDS011;51003;51.628;6.670;2023-08-07T15:14:29;2.40;;;1.70;;
64595;SDS011;51003;51.628;6.670;2023-08-07T15:16:54;3.00;;;1.63;;
64595;SDS011;51003;51.628;6.670;2023-08-07T15:19:20;1.57;;;1.47;;
64595;SDS011;51003;51.628;6.670;2023-08-07T15:21:45;3.13;;;1.80;;
64595;SDS011;51003;51.628;6.670;2023-08-07T15:24:10;1.43;;;1.33;;
64595;SDS011;51003;51.628;6.670;2023-08-07T15:26:36;1.93;;;1.63;;
64595;SDS011;51003;51.628;6.670;2023-08-07T15:29:01;2.80;;;1.50;;
64595;SDS011;51003;51.628;6.670;2023-08-07T15:31:26;1.70;;;1.60;;
64595;SDS011;51003;51.628;6.670;2023-08-07T15:33:52;1.53;;;1.43;;
64595;SDS011;51003;51.628;6.670;2023-08-07T15:36:18;2.27;;;1.70;;
64595;SDS011;51003;51.628;6.670;2023-08-07T15:38:43;1.50;;;1.40;;
64595;SDS011;51003;51.628;6.670;2023-08-07T15:41:12;2.00;;;1.80;;
64595;SDS011;51003;51.628;6.670;2023-08-07T15:43:37;3.20;;;2.03;;
64595;SDS011;51003;51.628;6.670;2023-08-07T15:46:03;3.47;;;1.97;;
64595;SDS011;51003;51.628;6.670;2023-08-07T15:48:28;3.60;;;1.90;;
64595;SDS011;51003;51.628;6.670;2023-08-07T15:50:54;2.10;;;1.83;;
64595;SDS011;51003;51.628;6.670;2023-08-07T15:53:19;3.90;;;2.00;;
64595;SDS011;51003;51.628;6.670;2023-08-07T15:55:45;2.20;;;2.00;;
64595;SDS011;51003;51.628;6.670;2023-08-07T15:58:10;2.30;;;1.80;;
64595;SDS011;51003;51.628;6.670;2023-08-07T16:00:36;2.43;;;1.83;;
64595;SDS011;51003;51.628;6.670;2023-08-07T16:03:02;2.50;;;2.30;;
64595;SDS011;51003;51.628;6.670;2023-08-07T16:05:29;2.43;;;2.20;;
64595;SDS011;51003;51.628;6.670;2023-08-07T16:07:55;2.90;;;2.10;;
64595;SDS011;51003;51.628;6.670;2023-08-07T16:10:20;3.27;;;2.13;;
64595;SDS011;51003;51.628;6.670;2023-08-07T16:12:46;2.73;;;2.33;;
64595;SDS011;51003;51.628;6.670;2023-08-07T16:15:12;2.90;;;1.80;;
64595;SDS011;51003;51.628;6.670;2023-08-07T16:17:38;2.83;;;1.87;;
64595;SDS011;51003;51.628;6.670;2023-08-07T16:20:03;2.13;;;2.00;;
64595;SDS011;51003;51.628;6.670;2023-08-07T16:22:29;4.77;;;2.40;;
64595;SDS011;51003;51.628;6.670;2023-08-07T16:24:54;2.97;;;2.23;;
64595;SDS011;51003;51.628;6.670;2023-08-07T16:27:20;3.73;;;2.10;;
64595;SDS011;51003;51.628;6.670;2023-08-07T16:29:46;4.80;;;2.03;;
64595;SDS011;51003;51.628;6.670;2023-08-07T16:32:11;4.60;;;2.40;;
64595;SDS011;51003;51.628;6.670;2023-08-07T16:34:37;4.23;;;2.20;;
64595;SDS011;51003;51.628;6.670;2023-08-07T16:37:02;3.33;;;2.27;;
64595;SDS011;51003;51.628;6.670;2023-08-07T16:39:28;4.67;;;2.13;;
64595;SDS011;51003;51.628;6.670;2023-08-07T16:41:53;4.00;;;2.17;;
64595;SDS011;51003;51.628;6.670;2023-08-07T16:44:18;5.70;;;2.27;;
64595;SDS011;51003;51.628;6.670;2023-08-07T16:46:44;2.70;;;2.40;;
64595;SDS011;51003;51.628;6.670;2023-08-07T16:49:09;6.37;;;2.57;;
64595;SDS011;51003;51.628;6.670;2023-08-07T16:51:34;3.40;;;2.00;;
64595;SDS011;51003;51.628;6.670;2023-08-07T16:54:00;3.90;;;2.00;;
64595;SDS011;51003;51.628;6.670;2023-08-07T16:56:26;3.40;;;2.20;;
64595;SDS011;51003;51.628;6.670;2023-08-07T16:58:52;5.20;;;2.90;;
64595;SDS011;51003;51.628;6.670;2023-08-07T17:01:17;4.93;;;2.37;;
64595;SDS011;51003;51.628;6.670;2023-08-07T17:03:43;2.27;;;1.93;;
64595;SDS011;51003;51.628;6.670;2023-08-07T17:06:08;1.87;;;1.70;;
64595;SDS011;51003;51.628;6.670;2023-08-07T17:08:34;2.10;;;2.00;;
64595;SDS011;51003;51.628;6.670;2023-08-07T17:10:59;2.60;;;1.80;;
64595;SDS011;51003;51.628;6.670;2023-08-07T17:13:25;4.90;;;1.90;;
64595;SDS011;51003;51.628;6.670;2023-08-07T17:15:50;3.73;;;1.80;;
64595;SDS011;51003;51.628;6.670;2023-08-07T17:18:16;2.07;;;1.87;;
64595;SDS011;51003;51.628;6.670;2023-08-07T17:20:41;1.87;;;1.60;;
64595;SDS011;51003;51.628;6.670;2023-08-07T17:23:07;2.50;;;1.97;;
64595;SDS011;51003;51.628;6.670;2023-08-07T17:25:32;2.43;;;1.70;;
64595;SDS011;51003;51.628;6.670;2023-08-07T17:27:57;2.70;;;1.77;;
64595;SDS011;51003;51.628;6.670;2023-08-07T17:30:23;2.97;;;2.10;;
64595;SDS011;51003;51.628;6.670;2023-08-07T17:32:49;3.30;;;2.07;;
64595;SDS011;51003;51.628;6.670;2023-08-07T17:35:15;7.47;;;2.00;;
64595;SDS011;51003;51.628;6.670;2023-08-07T17:37:40;2.43;;;2.00;;
64595;SDS011;51003;51.628;6.670;2023-08-07T17:40:06;4.30;;;1.87;;
64595;SDS011;51003;51.628;6.670;2023-08-07T17:42:33;2.70;;;1.90;;
64595;SDS011;51003;51.628;6.670;2023-08-07T17:44:59;2.23;;;2.00;;
64595;SDS011;51003;51.628;6.670;2023-08-07T17:47:25;2.97;;;2.30;;
64595;SDS011;51003;51.628;6.670;2023-08-07T17:49:51;2.33;;;2.13;;
64595;SDS011;51003;51.628;6.670;2023-08-07T17:52:16;2.77;;;2.40;;
64595;SDS011;51003;51.628;6.670;2023-08-07T17:54:42;5.73;;;2.17;;
64595;SDS011;51003;51.628;6.670;2023-08-07T17:57:08;4.27;;;2.20;;
64595;SDS011;51003;51.628;6.670;2023-08-07T17:59:33;5.43;;;2.20;;
64595;SDS011;51003;51.628;6.670;2023-08-07T18:01:59;3.50;;;1.83;;
64595;SDS011;51003;51.628;6.670;2023-08-07T18:04:24;3.13;;;1.80;;
64595;SDS011;51003;51.628;6.670;2023-08-07T18:06:51;7.43;;;2.33;;
64595;SDS011;51003;51.628;6.670;2023-08-07T18:09:18;4.10;;;2.30;;
64595;SDS011;51003;51.628;6.670;2023-08-07T18:11:44;4.03;;;2.43;;
64595;SDS011;51003;51.628;6.670;2023-08-07T18:14:10;4.03;;;2.33;;
64595;SDS011;51003;51.628;6.670;2023-08-07T18:16:35;2.00;;;1.83;;
64595;SDS011;51003;51.628;6.670;2023-08-07T18:19:01;2.37;;;2.17;;
64595;SDS011;51003;51.628;6.670;2023-08-07T18:21:26;2.50;;;2.00;;
64595;SDS011;51003;51.628;6.670;2023-08-07T18:23:52;1.90;;;1.80;;
64595;SDS011;51003;51.628;6.670;2023-08-07T18:26:18;2.37;;;2.17;;
64595;SDS011;51003;51.628;6.670;2023-08-07T18:28:44;4.00;;;2.40;;
64595;SDS011;51003;51.628;6.670;2023-08-07T18:31:10;3.47;;;2.10;;
64595;SDS011;51003;51.628;6.670;2023-08-07T18:33:35;2.17;;;2.00;;
64595;SDS011;51003;51.628;6.670;2023-08-07T18:36:01;2.30;;;1.80;;
64595;SDS011;51003;51.628;6.670;2023-08-07T18:38:27;2.10;;;1.90;;
64595;SDS011;51003;51.628;6.670;2023-08-07T18:40:53;2.37;;;1.87;;
64595;SDS011;51003;51.628;6.670;2023-08-07T18:43:19;4.23;;;1.93;;
64595;SDS011;51003;51.628;6.670;2023-08-07T18:45:45;4.20;;;2.00;;
64595;SDS011;51003;51.628;6.670;2023-08-07T18:48:11;2.37;;;2.13;;
64595;SDS011;51003;51.628;6.670;2023-08-07T18:50:37;3.20;;;2.00;;
64595;SDS011;51003;51.628;6.670;2023-08-07T18:53:05;2.57;;;2.13;;
64595;SDS011;51003;51.628;6.670;2023-08-07T18:55:32;2.80;;;2.23;;
64595;SDS011;51003;51.628;6.670;2023-08-07T18:57:59;2.10;;;2.00;;
64595;SDS011;51003;51.628;6.670;2023-08-07T19:00:24;4.70;;;2.20;;
64595;SDS011;51003;51.628;6.670;2023-08-07T19:02:51;4.70;;;1.97;;
64595;SDS011;51003;51.628;6.670;2023-08-07T19:05:16;4.07;;;2.10;;
64595;SDS011;51003;51.628;6.670;2023-08-07T19:07:42;2.77;;;2.50;;
64595;SDS011;51003;51.628;6.670;2023-08-07T19:10:08;2.40;;;2.10;;
64595;SDS011;51003;51.628;6.670;2023-08-07T19:12:35;2.10;;;2.00;;
64595;SDS011;51003;51.628;6.670;2023-08-07T19:15:01;3.40;;;2.37;;
64595;SDS011;51003;51.628;6.670;2023-08-07T19:17:42;3.47;;;2.10;;
64595;SDS011;51003;51.628;6.670;2023-08-07T19:20:08;4.93;;;2.03;;
64595;SDS011;51003;51.628;6.670;2023-08-07T19:22:35;2.70;;;2.50;;
64595;SDS011;51003;51.628;6.670;2023-08-07T19:25:01;4.50;;;2.70;;
64595;SDS011;51003;51.628;6.670;2023-08-07T19:27:26;4.30;;;2.67;;
64595;SDS011;51003;51.628;6.670;2023-08-07T19:29:53;5.03;;;2.70;;
64595;SDS011;51003;51.628;6.670;2023-08-07T19:32:20;3.87;;;2.40;;
64595;SDS011;51003;51.628;6.670;2023-08-07T19:34:46;2.43;;;2.23;;
64595;SDS011;51003;51.628;6.670;2023-08-07T19:37:12;3.63;;;2.37;;
64595;SDS011;51003;51.628;6.670;2023-08-07T19:39:38;2.60;;;2.40;;
64595;SDS011;51003;51.628;6.670;2023-08-07T19:42:03;2.63;;;2.30;;
64595;SDS011;51003;51.628;6.670;2023-08-07T19:44:30;4.00;;;2.60;;
64595;SDS011;51003;51.628;6.670;2023-08-07T19:46:55;4.33;;;2.73;;
64595;SDS011;51003;51.628;6.670;2023-08-07T19:49:21;2.97;;;2.70;;
64595;SDS011;51003;51.628;6.670;2023-08-07T19:51:46;2.70;;;2.50;;
64595;SDS011;51003;51.628;6.670;2023-08-07T19:54:12;2.77;;;2.57;;
64595;SDS011;51003;51.628;6.670;2023-08-07T19:56:38;3.90;;;2.70;;
64595;SDS011;51003;51.628;6.670;2023-08-07T19:59:04;2.50;;;2.30;;
64595;SDS011;51003;51.628;6.670;2023-08-07T20:01:30;3.30;;;2.70;;
64595;SDS011;51003;51.628;6.670;2023-08-07T20:03:55;2.63;;;2.43;;
64595;SDS011;51003;51.628;6.670;2023-08-07T20:06:21;3.90;;;2.80;;
64595;SDS011;51003;51.628;6.670;2023-08-07T20:08:46;6.47;;;2.73;;
64595;SDS011;51003;51.628;6.670;2023-08-07T20:11:12;4.63;;;2.70;;
64595;SDS011;51003;51.628;6.670;2023-08-07T20:13:38;4.20;;;3.13;;
64595;SDS011;51003;51.628;6.670;2023-08-07T20:16:03;2.97;;;2.50;;
64595;SDS011;51003;51.628;6.670;2023-08-07T20:18:30;7.60;;;3.20;;
64595;SDS011;51003;51.628;6.670;2023-08-07T20:20:56;3.93;;;3.30;;
64595;SDS011;51003;51.628;6.670;2023-08-07T20:23:22;5.73;;;3.70;;
64595;SDS011;51003;51.628;6.670;2023-08-07T20:25:49;3.43;;;3.13;;
64595;SDS011;51003;51.628;6.670;2023-08-07T20:28:15;6.40;;;3.10;;
64595;SDS011;51003;51.628;6.670;2023-08-07T20:30:41;3.60;;;3.30;;
64595;SDS011;51003;51.628;6.670;2023-08-07T20:33:07;3.03;;;2.80;;
64595;SDS011;51003;51.628;6.670;2023-08-07T20:35:32;4.47;;;3.00;;
64595;SDS011;51003;51.628;6.670;2023-08-07T20:37:58;3.73;;;2.67;;
64595;SDS011;51003;51.628;6.670;2023-08-07T20:40:23;4.20;;;3.00;;
64595;SDS011;51003;51.628;6.670;2023-08-07T20:42:49;3.53;;;3.00;;
64595;SDS011;51003;51.628;6.670;2023-08-07T20:45:18;6.10;;;3.07;;
64595;SDS011;51003;51.628;6.670;2023-08-07T20:47:43;6.30;;;3.17;;
64595;SDS011;51003;51.628;6.670;2023-08-07T20:50:09;3.43;;;3.13;;
64595;SDS011;51003;51.628;6.670;2023-08-07T20:52:36;3.47;;;3.10;;
64595;SDS011;51003;51.628;6.670;2023-08-07T20:55:02;3.40;;;3.00;;
64595;SDS011;51003;51.628;6.670;2023-08-07T20:57:28;4.20;;;2.80;;
64595;SDS011;51003;51.628;6.670;2023-08-07T20:59:53;2.90;;;2.70;;
64595;SDS011;51003;51.628;6.670;2023-08-07T21:02:20;5.73;;;2.87;;
64595;SDS011;51003;51.628;6.670;2023-08-07T21:04:46;3.33;;;2.93;;
64595;SDS011;51003;51.628;6.670;2023-08-07T21:07:11;5.07;;;3.43;;
64595;SDS011;51003;51.628;6.670;2023-08-07T21:09:37;4.20;;;3.07;;
64595;SDS011;51003;51.628;6.670;2023-08-07T21:12:03;3.50;;;2.80;;
64595;SDS011;51003;51.628;6.670;2023-08-07T21:14:29;3.93;;;3.07;;
64595;SDS011;51003;51.628;6.670;2023-08-07T21:16:56;8.90;;;3.00;;
64595;SDS011;51003;51.628;6.670;2023-08-07T21:19:22;6.57;;;2.83;;
64595;SDS011;51003;51.628;6.670;2023-08-07T21:21:48;4.20;;;3.30;;
64595;SDS011;51003;51.628;6.670;2023-08-07T21:24:13;4.47;;;2.93;;
64595;SDS011;51003;51.628;6.670;2023-08-07T21:26:40;5.20;;;3.30;;
64595;SDS011;51003;51.628;6.670;2023-08-07T21:29:06;3.73;;;3.10;;
64595;SDS011;51003;51.628;6.670;2023-08-07T21:31:32;3.43;;;3.13;;
64595;SDS011;51003;51.628;6.670;2023-08-07T21:33:58;3.77;;;2.90;;
64595;SDS011;51003;51.628;6.670;2023-08-07T21:36:24;3.23;;;2.90;;
64595;SDS011;51003;51.628;6.670;2023-08-07T21:38:51;3.43;;;2.77;;
64595;SDS011;51003;51.628;6.670;2023-08-07T21:41:17;4.40;;;3.13;;
64595;SDS011;51003;51.628;6.670;2023-08-07T21:43:43;3.53;;;2.83;;
64595;SDS011;51003;51.628;6.670;2023-08-07T21:46:09;3.20;;;2.90;;